Time;durP1;ratioP1;P1;durP2;ratioP2;P2;SDS_P1;SDS_P2;PMS_P1;PMS_P2;Temp;Humidity;BMP_temperature;BMP_pressure;BME280_temperature;BME280_humidity;BME280_pressure;Samples;Min_cycle;Max_cycle;Signal;HPM_P1;HPM_P2
2020/12/31 00:01:21;;;;;;;37.63;23.20;;;;;;;6.35;73.51;100850.77;1773255;80;21375;-54
2020/12/31 00:04:27;;;;;;;39.70;24.00;;;;;;;6.27;73.75;100858.74;1772391;81;21363;-52
2020/12/31 00:07:33;;;;;;;38.92;22.90;;;;;;;6.21;73.95;100849.78;1772952;80;21343;-52
2020/12/31 00:10:37;;;;;;;38.92;24.02;;;;;;;6.20;73.98;100858.08;1772628;80;21178;-54
2020/12/31 00:13:43;;;;;;;46.30;24.43;;;;;;;6.15;74.16;100844.90;1772438;80;21201;-53
2020/12/31 00:16:49;;;;;;;38.90;23.83;;;;;;;6.15;74.22;100849.46;1772612;80;21189;-53
2020/12/31 00:19:54;;;;;;;43.23;25.37;;;;;;;6.14;74.24;100855.39;1770270;80;21382;-53
2020/12/31 00:23:00;;;;;;;41.48;25.15;;;;;;;6.15;74.29;100850.34;1771008;81;21370;-53
2020/12/31 00:26:06;;;;;;;43.68;26.65;;;;;;;6.19;74.23;100859.92;1770952;81;21197;-53
2020/12/31 00:29:11;;;;;;;44.33;26.00;;;;;;;6.28;74.18;100853.66;1770732;81;21236;-53
2020/12/31 00:32:17;;;;;;;39.38;24.00;;;;;;;6.38;73.97;100848.25;1770590;81;21183;-53
2020/12/31 00:35:29;;;;;;;39.90;24.35;;;;;;;6.43;73.75;100852.30;1771054;81;21378;-54
2020/12/31 00:38:34;;;;;;;46.18;25.72;;;;;;;6.49;73.54;100842.22;1770702;81;21272;-52
2020/12/31 00:41:40;;;;;;;42.48;25.27;;;;;;;6.56;73.33;100842.03;1770779;81;21777;-52
2020/12/31 00:44:45;;;;;;;40.60;24.82;;;;;;;6.64;73.05;100829.09;1770809;81;21258;-53
2020/12/31 00:47:51;;;;;;;40.23;24.40;;;;;;;6.67;72.62;100839.20;1770889;81;21213;-53
2020/12/31 00:50:55;;;;;;;40.00;23.70;;;;;;;6.66;72.41;100837.98;1770756;81;21209;-54
2020/12/31 00:54:01;;;;;;;42.43;23.45;;;;;;;6.63;72.16;100827.39;1770825;81;21224;-54
2020/12/31 00:57:06;;;;;;;42.23;24.12;;;;;;;6.59;71.95;100830.88;1770971;81;21666;-54
2020/12/31 01:00:13;;;;;;;40.35;24.35;;;;;;;6.52;71.97;100826.98;1770597;81;21280;-52
2020/12/31 01:03:25;;;;;;;37.42;23.87;;;;;;;6.56;71.91;100834.37;1771420;80;21213;-52
2020/12/31 01:06:31;;;;;;;38.70;23.80;;;;;;;6.61;71.76;100826.13;1770765;80;21232;-53
2020/12/31 01:09:36;;;;;;;43.58;24.20;;;;;;;6.61;71.43;100828.85;1770629;81;21197;-54
2020/12/31 01:12:42;;;;;;;39.55;24.30;;;;;;;6.58;71.28;100825.05;1770730;81;21244;-52
2020/12/31 01:15:49;;;;;;;37.17;22.85;;;;;;;6.59;71.14;100824.08;1770789;81;21200;-54
2020/12/31 01:18:55;;;;;;;41.95;23.85;;;;;;;6.57;71.18;100838.30;1770582;81;21240;-52
2020/12/31 01:22:00;;;;;;;41.10;23.40;;;;;;;6.60;71.02;100849.39;1768683;79;21351;-53
2020/12/31 01:25:05;;;;;;;37.15;23.02;;;;;;;6.62;70.98;100854.20;1770571;80;21236;-52
2020/12/31 01:28:11;;;;;;;36.33;22.52;;;;;;;6.66;70.84;100848.34;1770232;80;21225;-53
2020/12/31 01:31:17;;;;;;;35.68;23.65;;;;;;;6.72;70.64;100841.50;1770250;80;21200;-53
2020/12/31 01:34:22;;;;;;;36.38;22.80;;;;;;;6.71;70.23;100834.31;1770102;81;21706;-53
2020/12/31 01:37:31;;;;;;;36.35;21.85;;;;;;;6.62;70.11;100840.61;1770017;81;21249;-51
2020/12/31 01:40:37;;;;;;;35.17;23.10;;;;;;;6.52;70.06;100834.27;1770608;80;21213;-52
2020/12/31 01:47:50;;;;;;;35.23;22.77;;;;;;;6.21;70.45;100826.67;1770672;80;21205;-53
2020/12/31 01:50:54;;;;;;;37.15;22.65;;;;;;;6.06;70.66;100836.19;1763953;81;21228;-54
2020/12/31 01:54:00;;;;;;;37.80;22.45;;;;;;;5.93;70.93;100835.05;1770843;81;21198;-54
2020/12/31 01:57:06;;;;;;;36.88;21.70;;;;;;;5.87;71.18;100838.80;1770760;81;21296;-54
2020/12/31 02:00:12;;;;;;;33.28;20.60;;;;;;;5.81;71.39;100829.80;1770567;81;21239;-53
2020/12/31 02:03:17;;;;;;;37.83;23.07;;;;;;;5.76;71.48;100829.34;1770824;81;21466;-53
2020/12/31 02:06:22;;;;;;;35.78;22.48;;;;;;;5.68;71.71;100838.17;1770996;81;21172;-53
2020/12/31 02:09:28;;;;;;;43.08;24.25;;;;;;;5.62;71.81;100826.49;1770874;81;21209;-51
2020/12/31 02:12:35;;;;;;;37.15;23.30;;;;;;;5.52;71.94;100826.91;1770905;80;21325;-53
2020/12/31 02:15:40;;;;;;;36.05;22.60;;;;;;;5.48;72.22;100831.39;1770891;80;21226;-52
2020/12/31 02:19:05;;;;;;;36.98;22.82;;;;;;;5.46;72.27;100817.08;1771114;80;21359;-53
2020/12/31 02:22:10;;;;;;;30.57;20.77;;;;;;;5.44;72.33;100811.78;1769610;80;21224;-53
2020/12/31 02:25:16;;;;;;;36.63;22.32;;;;;;;5.44;72.30;100804.16;1772619;80;21540;-53
2020/12/31 02:28:22;;;;;;;34.65;21.77;;;;;;;5.40;72.24;100808.11;1772533;80;21351;-53
2020/12/31 02:31:29;;;;;;;37.90;22.07;;;;;;;5.37;72.33;100811.97;1772820;80;21331;-53
2020/12/31 02:34:34;;;;;;;36.05;22.25;;;;;;;5.41;72.34;100822.04;1772547;80;21359;-53
2020/12/31 02:37:43;;;;;;;36.63;22.45;;;;;;;5.49;72.38;100812.73;1772610;80;21360;-52
2020/12/31 02:40:48;;;;;;;35.25;21.40;;;;;;;5.60;72.20;100806.75;1772704;80;21355;-52
2020/12/31 02:43:54;;;;;;;38.50;21.90;;;;;;;5.66;71.69;100791.27;1772439;80;21355;-52
2020/12/31 02:46:59;;;;;;;35.45;22.25;;;;;;;5.69;71.43;100788.80;1772405;81;21264;-52
2020/12/31 02:50:04;;;;;;;36.88;22.10;;;;;;;5.62;71.12;100777.61;1772522;81;21193;-53
2020/12/31 02:53:10;;;;;;;38.75;22.42;;;;;;;5.56;71.21;100789.50;1772602;80;21359;-51
2020/12/31 02:56:26;;;;;;;30.17;18.92;;;;;;;5.54;71.14;100772.47;1763957;80;21367;-52
2020/12/31 02:59:31;;;;;;;33.75;21.40;;;;;;;5.50;71.16;100779.18;1744353;81;21791;-52
2020/12/31 03:02:38;;;;;;;33.08;20.12;;;;;;;5.45;71.08;100779.59;1742139;82;21378;-52
2020/12/31 03:05:44;;;;;;;38.25;22.45;;;;;;;5.34;71.24;100762.02;1741939;82;21738;-52
2020/12/31 03:08:49;;;;;;;32.73;20.88;;;;;;;5.25;71.30;100767.39;1742057;82;21276;-51
2020/12/31 03:11:53;;;;;;;33.50;21.23;;;;;;;5.27;71.69;100784.38;1741985;82;21362;-52
2020/12/31 03:14:58;;;;;;;33.38;20.27;;;;;;;5.38;71.69;100793.32;1742081;82;21244;-52
2020/12/31 03:18:03;;;;;;;36.03;21.57;;;;;;;5.50;71.60;100800.38;1742005;82;21343;-51
2020/12/31 03:21:10;;;;;;;34.85;21.33;;;;;;;5.60;71.16;100790.94;1746573;80;21221;-51
2020/12/31 03:24:15;;;;;;;33.05;21.02;;;;;;;5.59;70.81;100786.52;1739840;82;21375;-51
2020/12/31 03:27:20;;;;;;;33.35;20.05;;;;;;;5.50;70.76;100795.47;1739931;82;21193;-52
2020/12/31 03:30:25;;;;;;;35.98;20.80;;;;;;;5.47;70.80;100811.52;1739747;82;22200;-52
2020/12/31 03:33:31;;;;;;;34.15;21.25;;;;;;;5.43;70.75;100805.13;1740207;82;21819;-51
2020/12/31 03:36:36;;;;;;;34.75;19.95;;;;;;;5.35;70.70;100796.78;1740011;82;21185;-52
2020/12/31 03:39:42;;;;;;;31.80;19.75;;;;;;;5.26;70.90;100782.17;1740386;82;21327;-52
2020/12/31 03:42:48;;;;;;;33.05;21.25;;;;;;;5.16;70.97;100802.08;1740526;82;21224;-51
2020/12/31 03:45:53;;;;;;;34.08;21.07;;;;;;;5.02;71.34;100816.83;1740111;82;21192;-53
2020/12/31 03:48:58;;;;;;;31.07;20.35;;;;;;;4.98;71.50;100818.59;1741165;82;21314;-52
2020/12/31 03:52:04;;;;;;;32.13;19.42;;;;;;;4.92;71.64;100813.65;1740264;82;21343;-51
2020/12/31 03:55:09;;;;;;;34.20;20.15;;;;;;;4.88;71.83;100821.21;1740163;82;21200;-52
2020/12/31 03:58:17;;;;;;;37.05;20.45;;;;;;;4.90;72.04;100812.42;1740293;82;21465;-53
2020/12/31 04:01:22;;;;;;;35.10;20.92;;;;;;;4.99;72.15;100818.94;1740726;82;21261;-51
2020/12/31 04:04:27;;;;;;;33.53;21.68;;;;;;;5.06;72.04;100802.52;1740158;82;21235;-51
2020/12/31 04:07:33;;;;;;;32.75;20.82;;;;;;;5.13;71.98;100809.13;1740472;82;21257;-53
2020/12/31 04:10:39;;;;;;;34.83;20.85;;;;;;;5.17;71.75;100793.80;1740181;82;21594;-51
2020/12/31 04:13:45;;;;;;;36.30;21.42;;;;;;;5.11;71.54;100809.26;1740261;82;21212;-52
2020/12/31 04:16:51;;;;;;;36.93;22.22;;;;;;;5.10;71.75;100809.39;1740249;82;21375;-52
2020/12/31 04:19:56;;;;;;;35.05;21.93;;;;;;;5.14;71.66;100804.08;1740695;82;21339;-52
2020/12/31 04:23:03;;;;;;;36.00;21.87;;;;;;;5.10;71.56;100808.91;1740769;82;21698;-52
2020/12/31 04:26:10;;;;;;;40.65;24.20;;;;;;;5.10;71.58;100815.69;1740291;82;21220;-51
2020/12/31 04:29:16;;;;;;;40.20;23.25;;;;;;;5.09;71.50;100819.89;1740397;82;21272;-51
2020/12/31 04:32:21;;;;;;;40.40;23.50;;;;;;;5.05;71.55;100824.70;1740069;82;21387;-52
2020/12/31 04:35:28;;;;;;;36.70;22.37;;;;;;;4.97;71.61;100823.63;1740298;82;21370;-52
2020/12/31 04:38:33;;;;;;;37.45;23.47;;;;;;;4.95;71.88;100833.77;1740440;82;21236;-52
2020/12/31 04:41:39;;;;;;;35.88;21.75;;;;;;;4.91;71.87;100830.45;1740474;82;21347;-52
2020/12/31 04:44:45;;;;;;;40.00;22.45;;;;;;;4.86;71.98;100830.45;1740380;82;21304;-52
2020/12/31 04:47:47;;;;;;;43.87;23.38;;;;;;;4.85;72.02;100836.87;1740051;82;21336;-52
2020/12/31 04:50:53;;;;;;;35.35;22.20;;;;;;;4.83;72.18;100853.77;1740270;82;21197;-52
2020/12/31 04:53:58;;;;;;;32.30;19.95;;;;;;;4.90;72.29;100852.27;1740199;82;21269;-53
2020/12/31 04:57:04;;;;;;;39.98;22.82;;;;;;;4.97;72.02;100850.27;1740328;82;21334;-52
2020/12/31 05:00:09;;;;;;;33.73;21.02;;;;;;;4.97;71.86;100846.68;1733674;82;21174;-53
2020/12/31 05:03:14;;;;;;;33.38;20.50;;;;;;;4.93;71.67;100841.16;1740332;82;21228;-52
2020/12/31 05:06:23;;;;;;;34.38;20.92;;;;;;;4.82;71.67;100842.04;1740544;82;21205;-53
2020/12/31 05:09:30;;;;;;;35.40;20.23;;;;;;;4.77;71.81;100841.59;1740206;82;21614;-52
2020/12/31 05:12:39;;;;;;;30.17;19.42;;;;;;;4.78;72.01;100841.95;1740480;82;21205;-53
2020/12/31 05:15:50;;;;;;;30.95;19.52;;;;;;;4.85;72.02;100854.50;1740225;82;21260;-52
2020/12/31 05:18:56;;;;;;;35.35;21.02;;;;;;;4.88;71.86;100850.17;1740395;82;21193;-52
2020/12/31 05:22:22;;;;;;;32.35;20.52;;;;;;;4.85;71.86;100851.80;1740543;82;21225;-51
2020/12/31 05:25:40;;;;;;;36.10;20.70;;;;;;;4.87;71.88;100853.89;1761899;79;21193;-52
2020/12/31 05:28:45;;;;;;;32.42;19.40;;;;;;;4.88;71.88;100855.12;1772828;80;21243;-52
2020/12/31 05:32:00;;;;;;;35.05;21.27;;;;;;;4.91;71.89;100845.36;1772424;81;21755;-53
2020/12/31 05:35:05;;;;;;;34.23;20.60;;;;;;;5.01;71.90;100851.72;1772385;80;21169;-53
2020/12/31 05:38:16;;;;;;;34.10;20.85;;;;;;;5.05;71.56;100855.03;1772405;80;21924;-53
2020/12/31 05:41:21;;;;;;;35.25;20.70;;;;;;;5.02;71.53;100860.73;1772684;80;21216;-53
2020/12/31 05:44:27;;;;;;;38.65;20.68;;;;;;;4.99;71.48;100865.93;1771851;80;21785;-53
2020/12/31 05:47:33;;;;;;;32.48;20.10;;;;;;;4.98;71.38;100866.06;1772792;80;21304;-52
2020/12/31 05:50:41;;;;;;;34.30;21.05;;;;;;;4.92;71.25;100857.92;1771312;80;21212;-52
2020/12/31 05:53:47;;;;;;;34.18;20.43;;;;;;;4.84;71.25;100852.76;1772990;80;21792;-52
2020/12/31 05:56:53;;;;;;;33.30;20.57;;;;;;;4.78;71.47;100844.66;1773028;80;21746;-51
2020/12/31 06:00:00;;;;;;;36.85;20.55;;;;;;;4.79;71.47;100854.50;1773218;80;21305;-52
2020/12/31 06:03:07;;;;;;;37.13;21.37;;;;;;;4.80;71.56;100861.67;1771848;80;21193;-52
2020/12/31 06:06:13;;;;;;;31.62;19.57;;;;;;;4.81;71.42;100863.38;1746261;80;21236;-51
2020/12/31 06:09:18;;;;;;;33.55;20.32;;;;;;;4.79;71.27;100856.38;1766275;81;21375;-52
2020/12/31 06:12:24;;;;;;;29.02;19.17;;;;;;;4.75;71.26;100852.18;1772068;80;21169;-51
2020/12/31 06:15:40;;;;;;;40.65;20.48;;;;;;;4.69;71.29;100844.56;1756981;80;21276;-51
2020/12/31 06:18:46;;;;;;;35.52;21.37;;;;;;;4.61;71.31;100841.98;1756656;81;21292;-53
2020/12/31 06:21:52;;;;;;;38.08;23.30;;;;;;;4.56;71.51;100848.78;1773331;80;21200;-53
2020/12/31 06:24:57;;;;;;;31.57;19.70;;;;;;;4.54;71.61;100850.27;1766977;81;21176;-52
2020/12/31 06:28:03;;;;;;;36.05;21.17;;;;;;;4.51;71.70;100834.26;1763030;79;21288;-53
2020/12/31 06:31:08;;;;;;;38.15;21.50;;;;;;;4.47;71.85;100847.68;1740165;82;21189;-52
2020/12/31 06:34:14;;;;;;;35.63;20.97;;;;;;;4.47;72.07;100846.32;1738731;82;21223;-53
2020/12/31 06:37:20;;;;;;;38.33;22.87;;;;;;;4.44;72.12;100852.48;1749955;80;21173;-53
2020/12/31 06:40:40;;;;;;;35.17;20.32;;;;;;;4.46;72.34;100854.58;1766200;80;21176;-52
2020/12/31 06:43:46;;;;;;;38.42;22.80;;;;;;;4.51;72.34;100859.14;1770161;80;21350;-52
2020/12/31 06:46:56;;;;;;;39.25;22.73;;;;;;;4.49;72.37;100874.17;1758540;80;21188;-52
2020/12/31 06:50:01;;;;;;;38.58;21.73;;;;;;;4.51;72.38;100861.37;1736343;81;21209;-52
2020/12/31 06:53:07;;;;;;;40.65;23.27;;;;;;;4.45;72.40;100863.23;1769299;80;21857;-52
2020/12/31 06:56:14;;;;;;;46.73;23.92;;;;;;;4.37;72.53;100867.06;1768004;80;21185;-52
2020/12/31 06:59:41;;;;;;;40.63;22.15;;;;;;;4.26;72.81;100864.36;1755895;80;21275;-53
2020/12/31 07:02:53;;;;;;;45.38;24.80;;;;;;;4.21;73.14;100873.34;1764322;80;21235;-53
2020/12/31 07:06:00;;;;;;;41.85;24.20;;;;;;;4.16;73.49;100875.56;1760724;80;21239;-54
2020/12/31 07:09:33;;;;;;;42.80;23.12;;;;;;;4.18;73.69;100883.08;1706920;82;21232;-53
2020/12/31 07:12:46;;;;;;;39.23;22.93;;;;;;;4.14;73.91;100884.30;1734476;82;21227;-53
2020/12/31 07:15:50;;;;;;;48.13;23.50;;;;;;;4.17;74.22;100887.27;1757526;80;21622;-52
2020/12/31 07:18:55;;;;;;;47.40;24.80;;;;;;;4.21;74.27;100890.95;1749643;80;21784;-53
2020/12/31 07:22:01;;;;;;;43.40;23.65;;;;;;;4.24;74.30;100884.41;1737115;80;21686;-53
2020/12/31 07:25:20;;;;;;;41.28;21.27;;;;;;;4.32;74.44;100895.02;1759539;80;21217;-52
2020/12/31 07:28:26;;;;;;;41.13;22.37;;;;;;;4.38;74.29;100891.80;1767778;80;21228;-53
2020/12/31 07:31:50;;;;;;;45.98;23.77;;;;;;;4.29;74.08;100890.33;1753025;81;21158;-52
2020/12/31 07:34:56;;;;;;;41.25;23.75;;;;;;;4.20;74.36;100897.34;1750891;81;21777;-53
2020/12/31 07:38:12;;;;;;;37.60;23.00;;;;;;;4.23;74.46;100893.54;1769175;80;21216;-52
2020/12/31 07:41:17;;;;;;;41.77;22.82;;;;;;;4.22;74.47;100885.02;1768202;80;21561;-53
2020/12/31 07:44:21;;;;;;;39.55;21.57;;;;;;;4.21;74.51;100881.95;1722312;81;21259;-53
2020/12/31 07:47:27;;;;;;;44.50;22.60;;;;;;;4.19;74.59;100883.44;1739864;82;21715;-53
2020/12/31 07:50:33;;;;;;;36.60;21.25;;;;;;;4.18;74.58;100891.20;1741905;80;21240;-54
2020/12/31 07:53:38;;;;;;;43.00;22.62;;;;;;;4.15;74.60;100884.68;1764634;81;21197;-54
2020/12/31 07:56:43;;;;;;;38.17;21.68;;;;;;;4.20;74.71;100885.66;1738281;82;21240;-52
2020/12/31 07:59:52;;;;;;;40.98;22.25;;;;;;;4.26;74.72;100883.33;1739522;82;21725;-52
2020/12/31 08:03:03;;;;;;;37.55;21.93;;;;;;;4.29;74.55;100895.27;1756046;81;21359;-53
2020/12/31 08:06:11;;;;;;;38.60;21.95;;;;;;;4.34;74.61;100892.19;1747338;81;21240;-54
2020/12/31 08:09:15;;;;;;;36.95;20.92;;;;;;;4.37;74.51;100892.80;1739292;82;21315;-52
2020/12/31 08:12:21;;;;;;;42.27;23.38;;;;;;;4.39;74.39;100900.30;1748301;81;21200;-53
2020/12/31 08:15:28;;;;;;;40.75;22.42;;;;;;;4.36;74.38;100896.48;1764398;81;21187;-52
2020/12/31 08:18:35;;;;;;;39.30;21.45;;;;;;;4.40;74.40;100907.45;1764498;81;21193;-52
2020/12/31 08:21:41;;;;;;;42.58;23.42;;;;;;;4.44;74.41;100904.85;1762764;80;21503;-54
2020/12/31 08:24:52;;;;;;;39.20;22.62;;;;;;;4.47;74.26;100914.09;1755844;81;21196;-53
2020/12/31 08:27:57;;;;;;;39.35;22.62;;;;;;;4.46;74.15;100900.18;1750244;81;21232;-52
2020/12/31 08:31:02;;;;;;;36.93;21.57;;;;;;;4.52;74.24;100896.97;1767918;80;21189;-53
2020/12/31 08:34:08;;;;;;;43.80;22.77;;;;;;;4.59;74.07;100892.78;1760621;81;21220;-53
2020/12/31 08:37:15;;;;;;;39.23;22.50;;;;;;;4.60;73.85;100890.91;1767311;80;21232;-53
2020/12/31 08:40:27;;;;;;;38.50;21.90;;;;;;;4.63;73.84;100902.38;1771660;80;21374;-53
2020/12/31 08:43:39;;;;;;;36.53;22.45;;;;;;;4.66;73.68;100897.69;1772388;80;21359;-52
2020/12/31 08:46:47;;;;;;;40.05;21.37;;;;;;;4.65;73.57;100887.84;1771617;80;21193;-52
2020/12/31 08:50:04;;;;;;;37.45;21.52;;;;;;;4.63;73.46;100895.59;1760588;80;21261;-52
2020/12/31 08:53:11;;;;;;;37.65;21.37;;;;;;;4.63;73.49;100896.59;1752140;81;21716;-53
2020/12/31 08:56:19;;;;;;;45.98;27.15;;;;;;;4.63;73.55;100894.23;1771346;80;21308;-53
2020/12/31 08:59:25;;;;;;;42.88;23.00;;;;;;;4.68;73.61;100887.08;1770844;80;21263;-53
2020/12/31 09:02:33;;;;;;;39.25;21.77;;;;;;;4.73;73.57;100888.92;1764185;80;21240;-53
2020/12/31 09:05:39;;;;;;;36.55;20.45;;;;;;;4.76;73.46;100885.11;1758929;81;21887;-53
2020/12/31 09:08:44;;;;;;;37.95;20.48;;;;;;;4.83;73.38;100884.95;1756968;80;21988;-55
2020/12/31 09:11:51;;;;;;;37.95;20.90;;;;;;;4.86;73.19;100879.27;1713602;81;21173;-54
2020/12/31 09:15:05;;;;;;;36.00;21.02;;;;;;;4.84;72.87;100873.10;1766177;80;21430;-53
2020/12/31 09:18:10;;;;;;;39.18;21.68;;;;;;;4.82;73.06;100880.53;1740963;82;21461;-54
2020/12/31 09:21:16;;;;;;;37.40;20.10;;;;;;;4.89;73.01;100877.66;1740686;82;21193;-54
2020/12/31 09:24:29;;;;;;;31.60;18.42;;;;;;;4.92;72.87;100877.39;1741528;80;21849;-52
2020/12/31 09:27:36;;;;;;;35.63;19.57;;;;;;;4.94;72.94;100867.29;1753682;81;21224;-53
2020/12/31 09:30:42;;;;;;;38.55;20.75;;;;;;;5.03;72.83;100865.15;1762650;80;21759;-52
2020/12/31 09:33:48;;;;;;;33.42;19.60;;;;;;;5.06;72.66;100857.63;1740832;82;21220;-55
2020/12/31 09:36:53;;;;;;;38.05;21.55;;;;;;;5.06;72.68;100854.07;1757903;81;21185;-53
2020/12/31 09:39:58;;;;;;;33.53;19.17;;;;;;;5.06;72.55;100852.71;1764879;80;21376;-53
2020/12/31 09:43:04;;;;;;;33.30;18.87;;;;;;;5.06;72.60;100852.71;1758368;80;21341;-53
2020/12/31 09:46:09;;;;;;;35.48;20.77;;;;;;;5.08;72.53;100857.48;1740919;82;21475;-53
2020/12/31 09:49:15;;;;;;;35.92;19.60;;;;;;;5.08;72.38;100857.00;1765747;81;21216;-53
2020/12/31 09:52:19;;;;;;;31.93;18.62;;;;;;;5.05;72.28;100856.39;1768023;80;21196;-52
2020/12/31 09:55:26;;;;;;;32.98;18.05;;;;;;;4.95;72.33;100845.45;1760177;80;21769;-52
2020/12/31 09:58:31;;;;;;;33.30;19.73;;;;;;;4.97;72.70;100845.33;1740708;82;21228;-52
2020/12/31 10:01:40;;;;;;;32.67;19.52;;;;;;;4.98;72.67;100841.64;1741294;80;21728;-52
2020/12/31 10:04:44;;;;;;;31.15;19.32;;;;;;;5.03;72.77;100836.66;1737566;81;21696;-53
2020/12/31 10:07:50;;;;;;;34.48;19.10;;;;;;;5.06;72.85;100841.86;1740626;82;21270;-52
2020/12/31 10:10:55;;;;;;;30.90;19.15;;;;;;;5.13;72.90;100830.83;1755740;81;21327;-53
2020/12/31 10:14:01;;;;;;;37.30;19.55;;;;;;;5.16;72.58;100824.66;1771614;80;21216;-53
2020/12/31 10:17:06;;;;;;;31.70;19.73;;;;;;;5.18;72.60;100816.38;1771794;80;21255;-52
2020/12/31 10:20:12;;;;;;;33.13;19.77;;;;;;;5.25;72.48;100814.88;1772008;80;21185;-52
2020/12/31 10:23:18;;;;;;;39.83;19.90;;;;;;;5.27;72.36;100812.38;1770999;80;21205;-52
2020/12/31 10:26:27;;;;;;;31.17;18.27;;;;;;;5.29;72.24;100811.77;1765845;80;21184;-54
2020/12/31 10:29:33;;;;;;;29.50;18.40;;;;;;;5.27;72.02;100808.31;1770842;80;21260;-53
2020/12/31 10:32:38;;;;;;;29.10;18.45;;;;;;;5.20;72.14;100804.91;1762520;80;21233;-53
2020/12/31 10:35:43;;;;;;;31.10;18.50;;;;;;;5.24;72.25;100802.28;1760737;81;21506;-53
2020/12/31 10:38:49;;;;;;;30.27;19.05;;;;;;;5.19;71.98;100798.61;1756225;81;21200;-53
2020/12/31 10:41:57;;;;;;;31.42;19.32;;;;;;;5.05;72.12;100803.48;1753531;81;21286;-52
2020/12/31 10:45:02;;;;;;;29.27;17.55;;;;;;;4.97;72.41;100792.42;1762172;81;21196;-53
2020/12/31 10:48:08;;;;;;;28.77;17.37;;;;;;;4.94;72.63;100792.20;1765567;81;21221;-54
2020/12/31 10:51:13;;;;;;;29.35;18.23;;;;;;;4.89;72.84;100782.23;1758652;80;21173;-53
2020/12/31 10:54:19;;;;;;;33.00;19.10;;;;;;;4.95;73.02;100784.94;1739437;80;21733;-52
2020/12/31 10:57:25;;;;;;;28.92;18.17;;;;;;;4.98;72.92;100779.25;1739717;82;21177;-56
2020/12/31 11:00:30;;;;;;;32.70;19.45;;;;;;;4.93;72.81;100770.64;1746656;81;21186;-53
2020/12/31 11:03:36;;;;;;;29.77;18.25;;;;;;;4.92;73.00;100772.96;1770098;80;21220;-54
2020/12/31 11:06:41;;;;;;;29.18;18.73;;;;;;;4.88;72.96;100765.61;1765686;81;21710;-54
2020/12/31 11:09:46;;;;;;;27.93;17.82;;;;;;;4.89;73.05;100765.09;1751491;80;21201;-54
2020/12/31 11:12:52;;;;;;;29.72;18.05;;;;;;;4.89;73.10;100766.45;1750396;81;21248;-53
2020/12/31 11:15:56;;;;;;;31.27;18.52;;;;;;;4.87;73.17;100763.87;1760130;81;21232;-52
2020/12/31 11:19:02;;;;;;;29.82;18.10;;;;;;;4.89;73.22;100764.61;1768964;81;21260;-54
2020/12/31 11:22:10;;;;;;;30.45;18.50;;;;;;;4.91;73.15;100769.90;1770254;80;21194;-53
2020/12/31 11:25:16;;;;;;;30.17;18.67;;;;;;;4.84;73.25;100764.62;1769973;80;21698;-55
2020/12/31 11:28:22;;;;;;;27.70;18.20;;;;;;;4.86;73.39;100764.00;1770264;80;21761;-53
2020/12/31 11:31:35;;;;;;;29.90;17.73;;;;;;;4.83;73.41;100765.62;1770774;80;21185;-53
2020/12/31 11:34:42;;;;;;;27.13;17.17;;;;;;;4.82;73.48;100772.87;1766635;81;21295;-53
2020/12/31 11:37:47;;;;;;;26.23;17.52;;;;;;;4.83;73.55;100772.40;1767184;81;21219;-54
2020/12/31 11:40:52;;;;;;;26.42;17.40;;;;;;;4.87;73.52;100771.16;1764468;80;21174;-53
2020/12/31 11:43:57;;;;;;;28.35;18.17;;;;;;;4.90;73.51;100774.97;1760546;80;21305;-53
2020/12/31 11:47:09;;;;;;;28.73;17.25;;;;;;;4.89;73.42;100772.74;1766878;81;21338;-53
2020/12/31 11:50:16;;;;;;;28.17;17.67;;;;;;;4.88;73.45;100768.32;1767307;81;21196;-54
2020/12/31 11:53:22;;;;;;;27.50;16.65;;;;;;;4.86;73.34;100775.72;1749819;79;21373;-54
2020/12/31 11:56:27;;;;;;;29.23;17.02;;;;;;;4.78;73.29;100769.20;1718879;83;21386;-52
2020/12/31 11:59:32;;;;;;;26.15;15.88;;;;;;;4.75;73.54;100774.41;1718693;82;21283;-52
2020/12/31 12:02:38;;;;;;;27.98;18.32;;;;;;;4.76;73.54;100768.50;1718703;82;21471;-53
2020/12/31 12:05:44;;;;;;;24.75;16.50;;;;;;;4.77;73.44;100766.14;1718885;83;21204;-52
2020/12/31 12:08:49;;;;;;;27.80;17.77;;;;;;;4.72;73.58;100765.66;1719034;82;21231;-52
2020/12/31 12:11:54;;;;;;;25.43;16.12;;;;;;;4.78;73.76;100765.14;1718664;83;21369;-53
2020/12/31 12:14:59;;;;;;;25.08;15.88;;;;;;;4.89;73.77;100763.73;1686944;85;21189;-53
2020/12/31 12:18:04;;;;;;;25.10;15.98;;;;;;;4.97;73.40;100758.52;1681102;84;21296;-54
2020/12/31 12:21:10;;;;;;;25.62;16.32;;;;;;;4.97;73.23;100757.16;1711487;84;21204;-54
2020/12/31 12:24:17;;;;;;;27.67;16.77;;;;;;;4.96;73.20;100761.75;1687005;83;21793;-54
2020/12/31 12:27:24;;;;;;;24.25;16.52;;;;;;;5.00;73.18;100756.89;1681520;84;21753;-52
2020/12/31 12:30:31;;;;;;;26.62;16.55;;;;;;;5.08;73.11;100751.19;1711388;84;21302;-52
2020/12/31 12:33:36;;;;;;;24.25;14.38;;;;;;;5.08;72.80;100749.83;1685797;85;21708;-54
2020/12/31 12:36:43;;;;;;;26.60;16.30;;;;;;;5.08;72.61;100755.26;1680708;85;21591;-53
2020/12/31 12:39:48;;;;;;;26.45;16.15;;;;;;;4.94;72.27;100750.16;1704945;84;21481;-53
2020/12/31 12:42:55;;;;;;;27.45;16.17;;;;;;;4.79;72.49;100746.55;1709391;84;21587;-53
2020/12/31 12:46:00;;;;;;;27.70;17.20;;;;;;;4.70;72.89;100755.44;1709921;84;21216;-53
2020/12/31 12:49:04;;;;;;;25.75;16.67;;;;;;;4.74;73.00;100755.05;1709820;84;21212;-52
2020/12/31 12:52:13;;;;;;;29.52;16.32;;;;;;;4.68;72.93;100758.80;1710767;84;21212;-52
2020/12/31 12:55:18;;;;;;;26.75;17.07;;;;;;;4.65;73.07;100757.19;1687958;83;21209;-53
2020/12/31 12:58:23;;;;;;;27.42;17.23;;;;;;;4.66;73.25;100763.48;1719090;82;21764;-52
2020/12/31 13:01:29;;;;;;;25.70;16.55;;;;;;;4.67;73.27;100762.48;1719121;83;21235;-51
2020/12/31 13:04:35;;;;;;;28.80;17.67;;;;;;;4.70;73.27;100767.64;1716867;82;21286;-53
2020/12/31 13:07:40;;;;;;;27.58;18.15;;;;;;;4.71;73.23;100770.22;1689419;83;21291;-53
2020/12/31 13:10:52;;;;;;;24.95;16.07;;;;;;;4.71;73.07;100771.58;1685005;85;21239;-53
2020/12/31 13:13:56;;;;;;;25.77;16.95;;;;;;;4.67;73.19;100771.48;1684769;83;21796;-52
2020/12/31 13:17:05;;;;;;;27.27;18.00;;;;;;;4.67;73.23;100784.17;1684379;85;21259;-53
2020/12/31 13:20:11;;;;;;;28.23;18.02;;;;;;;4.63;73.35;100773.23;1685483;85;21736;-52
2020/12/31 13:23:16;;;;;;;30.10;17.02;;;;;;;4.67;73.41;100776.91;1684788;83;21243;-54
2020/12/31 13:26:22;;;;;;;29.25;17.50;;;;;;;4.68;73.16;100773.70;1685782;85;21239;-54
2020/12/31 13:29:27;;;;;;;26.50;17.15;;;;;;;4.63;73.36;100772.71;1686025;83;21256;-54
2020/12/31 13:32:32;;;;;;;28.75;17.52;;;;;;;4.66;73.29;100775.68;1710796;82;21236;-53
2020/12/31 13:35:38;;;;;;;32.70;19.02;;;;;;;4.71;73.35;100776.16;1690317;84;21336;-53
2020/12/31 13:38:42;;;;;;;29.85;18.95;;;;;;;4.69;73.05;100768.16;1714707;82;21741;-53
2020/12/31 13:41:47;;;;;;;31.73;19.07;;;;;;;4.63;73.20;100772.23;1713549;83;21610;-54
2020/12/31 13:44:53;;;;;;;28.50;18.70;;;;;;;4.61;73.24;100777.42;1713148;83;21745;-52
2020/12/31 13:47:58;;;;;;;29.02;17.62;;;;;;;4.61;73.23;100772.84;1691274;83;21784;-52
2020/12/31 13:51:04;;;;;;;29.67;17.35;;;;;;;4.61;73.21;100777.42;1717852;83;21212;-53
2020/12/31 13:54:10;;;;;;;28.25;17.10;;;;;;;4.60;73.11;100766.19;1715932;82;21220;-53
2020/12/31 13:57:14;;;;;;;27.82;18.37;;;;;;;4.57;73.07;100765.10;1712434;82;21228;-53
2020/12/31 14:00:20;;;;;;;32.75;19.90;;;;;;;4.46;73.15;100773.27;1713106;83;21208;-53
2020/12/31 14:03:26;;;;;;;40.60;22.30;;;;;;;4.41;73.42;100769.59;1710598;83;21335;-54
2020/12/31 14:06:32;;;;;;;37.40;21.00;;;;;;;4.42;73.48;100782.14;1699017;83;21196;-53
2020/12/31 14:09:37;;;;;;;29.55;18.20;;;;;;;4.43;73.54;100771.69;1676547;85;21289;-54
2020/12/31 14:12:42;;;;;;;34.30;19.57;;;;;;;4.43;73.61;100773.05;1699726;84;21718;-54
2020/12/31 14:15:47;;;;;;;38.17;20.57;;;;;;;4.37;73.55;100773.56;1709423;83;21579;-54
2020/12/31 14:18:52;;;;;;;33.40;19.48;;;;;;;4.30;73.76;100765.55;1709145;83;21764;-54
2020/12/31 14:22:00;;;;;;;31.80;19.65;;;;;;;4.30;73.89;100760.62;1710538;84;21213;-54